Time;durP1;ratioP1;P1;durP2;ratioP2;P2;SDS_P1;SDS_P2;PMS_P1;PMS_P2;Temp;Humidity;BMP_temperature;BMP_pressure;BME280_temperature;BME280_humidity;BME280_pressure;Samples;Min_cycle;Max_cycle;Signal;HPM_P1;HPM_P2
2021/12/12 00:00:49;;;;;;;18.10;9.07;;;;;;;;;;5014364;28;20406;-66
2021/12/12 00:03:32;;;;;;;16.25;9.23;;;;;;;;;;5014235;28;20049;-66
2021/12/12 00:06:02;;;;;;;16.92;9.18;;;;;;;;;;5014336;28;20143;-66
2021/12/12 00:08:30;;;;;;;18.10;9.25;;;;;;;;;;5013858;28;20046;-66
2021/12/12 00:11:00;;;;;;;16.65;9.35;;;;;;;;;;5013674;28;20052;-65
2021/12/12 00:13:31;;;;;;;14.50;8.63;;;;;;;;;;5013992;28;20046;-65
2021/12/12 00:15:59;;;;;;;18.10;9.45;;;;;;;;;;5014173;28;20168;-65
2021/12/12 00:18:26;;;;;;;17.42;8.23;;;;;;;;;;5013719;28;20073;-65
2021/12/12 00:20:53;;;;;;;16.08;8.65;;;;;;;;;;5014046;28;20064;-66
2021/12/12 00:23:21;;;;;;;17.67;9.38;;;;;;;;;;5013897;28;20060;-65
2021/12/12 00:25:51;;;;;;;17.70;9.18;;;;;;;;;;5013887;28;20053;-65
2021/12/12 00:28:19;;;;;;;17.13;9.85;;;;;;;;;;5013707;28;20139;-65
2021/12/12 00:30:47;;;;;;;17.13;9.75;;;;;;;;;;5013722;28;20153;-65
2021/12/12 00:33:16;;;;;;;17.70;9.25;;;;;;;;;;5013358;28;20068;-66
2021/12/12 00:35:44;;;;;;;17.00;9.98;;;;;;;;;;5013714;28;20048;-66
2021/12/12 00:38:16;;;;;;;17.65;9.45;;;;;;;;;;5013287;28;20138;-66
2021/12/12 00:40:45;;;;;;;17.33;9.73;;;;;;;;;;5013633;28;20049;-66
2021/12/12 00:43:20;;;;;;;17.50;9.60;;;;;;;;;;5012153;28;20045;-66
2021/12/12 00:45:50;;;;;;;18.25;9.63;;;;;;;;;;5013017;28;20049;-66
2021/12/12 00:48:23;;;;;;;18.70;9.32;;;;;;;;;;5010019;28;20049;-65
2021/12/12 00:50:51;;;;;;;16.75;9.38;;;;;;;;;;5012872;28;20046;-66
2021/12/12 00:53:21;;;;;;;16.02;9.60;;;;;;;;;;5012013;28;20164;-65
2021/12/12 00:55:49;;;;;;;17.17;9.65;;;;;;;;;;5013615;28;20626;-65
2021/12/12 00:58:18;;;;;;;16.17;9.27;;;;;;;;;;5012966;28;20053;-66
2021/12/12 01:00:49;;;;;;;17.38;9.52;;;;;;;;;;5013155;28;20042;-66
2021/12/12 01:03:23;;;;;;;17.55;9.00;;;;;;;;;;5012861;28;20128;-66
2021/12/12 01:05:52;;;;;;;17.15;8.60;;;;;;;;;;5013208;28;20573;-67
2021/12/12 01:08:19;;;;;;;18.58;9.85;;;;;;;;;;5012847;28;20068;-66
2021/12/12 01:10:49;;;;;;;19.42;10.52;;;;;;;;;;5012969;28;20052;-66
2021/12/12 01:13:18;;;;;;;20.47;10.40;;;;;;;;;;5012737;28;20057;-66
2021/12/12 01:15:54;;;;;;;19.90;10.15;;;;;;;;;;5012762;28;20054;-65
2021/12/12 01:18:28;;;;;;;17.25;9.27;;;;;;;;;;5012463;28;20057;-66
2021/12/12 01:20:58;;;;;;;18.05;9.48;;;;;;;;;;5012741;28;20049;-65
2021/12/12 01:23:39;;;;;;;19.88;9.70;;;;;;;;;;5011850;28;20053;-65
2021/12/12 01:26:07;;;;;;;;;;;;;;;;;;5013246;28;20538;-65
2021/12/12 01:28:36;;;;;;;20.45;9.88;;;;;;;;;;5012591;28;19921;-65
2021/12/12 01:31:08;;;;;;;17.48;10.35;;;;;;;;;;5012351;28;20050;-65
2021/12/12 01:33:37;;;;;;;17.77;10.35;;;;;;;;;;5012546;28;20053;-65
2021/12/12 01:36:07;;;;;;;17.88;9.57;;;;;;;;;;5012414;28;20057;-65
2021/12/12 01:38:55;;;;;;;17.92;9.32;;;;;;;;;;5012186;28;20303;-65
2021/12/12 01:41:26;;;;;;;17.20;9.15;;;;;;;;;;5012353;28;20100;-65
2021/12/12 01:43:59;;;;;;;19.42;9.95;;;;;;;;;;5012299;28;20509;-65
2021/12/12 01:46:30;;;;;;;18.27;8.90;;;;;;;;;;5012430;28;20116;-65
2021/12/12 01:49:04;;;;;;;20.40;9.88;;;;;;;;;;5011966;28;20049;-65
2021/12/12 01:51:31;;;;;;;21.30;10.43;;;;;;;;;;5012281;28;20054;-65
2021/12/12 01:54:02;;;;;;;19.00;9.60;;;;;;;;;;5012133;28;20045;-65
2021/12/12 01:56:32;;;;;;;18.27;9.52;;;;;;;;;;5012249;28;20046;-65
2021/12/12 01:59:02;;;;;;;16.95;9.00;;;;;;;;;;5011879;28;20050;-66
2021/12/12 02:04:16;;;;;;;20.08;10.15;;;;;;;;;;5030082;28;20045;-67
2021/12/12 02:06:46;;;;;;;17.33;9.43;;;;;;;;;;5032691;28;20532;-68
2021/12/12 02:09:14;;;;;;;20.58;9.80;;;;;;;;;;5032741;28;20476;-67
2021/12/12 02:11:43;;;;;;;17.42;9.05;;;;;;;;;;5029454;28;20133;-68
2021/12/12 02:14:13;;;;;;;17.63;9.77;;;;;;;;;;5012414;28;20053;-67
2021/12/12 02:16:44;;;;;;;23.52;10.82;;;;;;;;;;5013407;28;20416;-68
2021/12/12 02:19:12;;;;;;;17.83;9.55;;;;;;;;;;5013189;28;20045;-68
2021/12/12 02:21:56;;;;;;;18.42;9.82;;;;;;;;;;5012457;28;20054;-68
2021/12/12 02:35:46;;;;;;;19.17;10.43;;;;;;;;;;5015675;28;20061;-67
2021/12/12 02:38:17;;;;;;;17.77;9.38;;;;;;;;;;5016675;28;20569;-67
2021/12/12 02:40:46;;;;;;;;;;;;;;;;;;5016913;28;20096;-69
2021/12/12 02:43:15;;;;;;;19.55;9.60;;;;;;;;;;5016805;28;19921;-67
2021/12/12 02:45:43;;;;;;;18.77;10.18;;;;;;;;;;5016302;28;20487;-68
2021/12/12 02:48:16;;;;;;;18.52;9.43;;;;;;;;;;5016158;28;20422;-68
2021/12/12 02:50:47;;;;;;;19.08;10.25;;;;;;;;;;5016792;28;20408;-68
2021/12/12 02:53:18;;;;;;;17.90;9.32;;;;;;;;;;5016122;28;20407;-68
2021/12/12 02:55:47;;;;;;;;;;;;;;;;;;5016197;28;20061;-65
2021/12/12 02:58:19;;;;;;;17.23;9.18;;;;;;;;;;5015664;28;19921;-66
2021/12/12 03:00:55;;;;;;;18.83;10.02;;;;;;;;;;5015612;28;20053;-66
2021/12/12 03:03:22;;;;;;;19.05;9.35;;;;;;;;;;5015670;28;20068;-65
2021/12/12 03:05:50;;;;;;;17.25;9.40;;;;;;;;;;5015488;28;20060;-65
2021/12/12 03:08:18;;;;;;;16.67;9.60;;;;;;;;;;5015509;28;20056;-66
2021/12/12 03:10:50;;;;;;;18.25;9.63;;;;;;;;;;5015812;28;20053;-66
2021/12/12 03:13:17;;;;;;;19.55;10.27;;;;;;;;;;5015329;28;20091;-66
2021/12/12 03:15:46;;;;;;;17.23;9.32;;;;;;;;;;5015573;28;20050;-67
2021/12/12 03:18:17;;;;;;;18.02;10.77;;;;;;;;;;5015682;28;20418;-67
2021/12/12 03:20:50;;;;;;;19.42;9.85;;;;;;;;;;5015348;28;20049;-66
2021/12/12 03:23:20;;;;;;;18.98;9.68;;;;;;;;;;5015282;28;20100;-67
2021/12/12 03:25:54;;;;;;;19.10;9.25;;;;;;;;;;5015333;28;20563;-67
2021/12/12 03:28:25;;;;;;;17.45;9.40;;;;;;;;;;5015099;28;20050;-66
2021/12/12 03:30:57;;;;;;;18.98;9.75;;;;;;;;;;5015143;28;20054;-67
2021/12/12 03:33:25;;;;;;;15.88;8.50;;;;;;;;;;5015197;28;20517;-67
2021/12/12 03:35:54;;;;;;;16.58;9.57;;;;;;;;;;5015002;28;20054;-67
2021/12/12 03:38:23;;;;;;;18.30;10.05;;;;;;;;;;5014804;28;20052;-66
2021/12/12 03:40:52;;;;;;;19.35;9.68;;;;;;;;;;5015134;28;20128;-67
2021/12/12 03:43:19;;;;;;;17.45;8.68;;;;;;;;;;5014816;28;20082;-66
2021/12/12 03:45:46;;;;;;;17.38;9.48;;;;;;;;;;5014317;28;20054;-67
2021/12/12 03:48:18;;;;;;;18.45;9.20;;;;;;;;;;5014710;28;20088;-67
2021/12/12 03:50:47;;;;;;;18.10;9.75;;;;;;;;;;5014732;28;20081;-67
2021/12/12 03:53:16;;;;;;;20.20;9.40;;;;;;;;;;5014686;28;20079;-67
2021/12/12 03:55:45;;;;;;;17.48;9.30;;;;;;;;;;5014646;28;20050;-67
2021/12/12 03:58:14;;;;;;;19.42;9.13;;;;;;;;;;5014529;28;20045;-67
2021/12/12 04:00:46;;;;;;;20.73;9.90;;;;;;;;;;5014609;28;20050;-67
2021/12/12 04:03:14;;;;;;;17.52;9.35;;;;;;;;;;5014477;28;20057;-68
2021/12/12 04:05:46;;;;;;;17.65;8.80;;;;;;;;;;5014841;28;20061;-68
2021/12/12 04:08:13;;;;;;;17.48;9.30;;;;;;;;;;5014764;28;20053;-67
2021/12/12 04:10:40;;;;;;;20.52;9.60;;;;;;;;;;5014455;28;20056;-67
2021/12/12 04:13:08;;;;;;;17.83;9.07;;;;;;;;;;5014325;28;20056;-67
2021/12/12 04:15:36;;;;;;;18.60;8.02;;;;;;;;;;5014401;28;20050;-67
2021/12/12 04:18:04;;;;;;;16.55;9.40;;;;;;;;;;5014520;28;20061;-67
2021/12/12 04:20:35;;;;;;;17.15;8.73;;;;;;;;;;5014300;28;20061;-68
2021/12/12 04:23:02;;;;;;;18.27;8.88;;;;;;;;;;5014153;28;20058;-69
2021/12/12 04:25:29;;;;;;;15.70;8.63;;;;;;;;;;5014220;28;20049;-67
2021/12/12 04:27:56;;;;;;;18.83;9.48;;;;;;;;;;5014293;28;20406;-67
2021/12/12 04:30:24;;;;;;;17.90;9.55;;;;;;;;;;5013842;28;20046;-67
2021/12/12 04:32:53;;;;;;;16.90;8.73;;;;;;;;;;5014013;28;20049;-67
2021/12/12 04:35:25;;;;;;;15.43;8.85;;;;;;;;;;5013820;28;20050;-67
2021/12/12 04:37:53;;;;;;;15.52;8.45;;;;;;;;;;5014098;28;20083;-68
2021/12/12 04:40:23;;;;;;;16.30;8.35;;;;;;;;;;5013739;28;20108;-67
2021/12/12 04:42:53;;;;;;;20.35;8.90;;;;;;;;;;5013881;28;20050;-67
2021/12/12 04:45:31;;;;;;;18.23;9.18;;;;;;;;;;5014071;28;20066;-67
2021/12/12 04:50:53;;;;;;;18.13;8.82;;;;;;;;;;5013643;28;20052;-67
2021/12/12 04:53:31;;;;;;;16.13;8.25;;;;;;;;;;5013386;28;20050;-68
2021/12/12 04:56:06;;;;;;;16.88;8.68;;;;;;;;;;5013467;28;20061;-66
2021/12/12 04:58:39;;;;;;;18.95;9.25;;;;;;;;;;5012672;28;20050;-66
2021/12/12 05:01:11;;;;;;;18.63;9.18;;;;;;;;;;5013981;28;20054;-66
2021/12/12 05:03:46;;;;;;;16.23;8.57;;;;;;;;;;5013492;28;20105;-65
2021/12/12 05:06:20;;;;;;;18.15;9.15;;;;;;;;;;5013385;28;20053;-66
2021/12/12 05:08:53;;;;;;;16.38;8.77;;;;;;;;;;5013303;28;20060;-66
2021/12/12 05:11:25;;;;;;;17.42;8.60;;;;;;;;;;5013254;28;20046;-66
2021/12/12 05:13:55;;;;;;;17.80;8.93;;;;;;;;;;5013294;28;20053;-67
2021/12/12 05:16:27;;;;;;;18.13;9.48;;;;;;;;;;5013050;28;20061;-66
2021/12/12 05:19:05;;;;;;;18.00;9.50;;;;;;;;;;5013119;28;20050;-67
2021/12/12 05:21:35;;;;;;;17.73;8.77;;;;;;;;;;5012918;28;20066;-66
2021/12/12 05:24:07;;;;;;;18.33;9.37;;;;;;;;;;5013344;28;20049;-66
2021/12/12 05:26:37;;;;;;;17.58;8.57;;;;;;;;;;5013042;28;20283;-67
2021/12/12 05:29:11;;;;;;;16.17;8.63;;;;;;;;;;5013001;28;20064;-67
2021/12/12 05:31:38;;;;;;;17.05;8.25;;;;;;;;;;5012893;28;20419;-67
2021/12/12 05:34:07;;;;;;;18.73;9.48;;;;;;;;;;5013029;28;20050;-66
2021/12/12 05:36:36;;;;;;;17.40;8.82;;;;;;;;;;5012803;28;20054;-67
2021/12/12 05:39:05;;;;;;;15.05;8.32;;;;;;;;;;5012695;28;20052;-68
2021/12/12 05:41:33;;;;;;;17.52;9.18;;;;;;;;;;5012936;28;20050;-68
2021/12/12 05:44:01;;;;;;;17.23;8.43;;;;;;;;;;5012599;28;20060;-66
2021/12/12 05:46:28;;;;;;;16.80;8.80;;;;;;;;;;5012770;28;20060;-66
2021/12/12 05:48:59;;;;;;;16.98;8.13;;;;;;;;;;5012821;28;20045;-67
2021/12/12 05:51:29;;;;;;;15.73;7.55;;;;;;;;;;5012559;28;20046;-68
2021/12/12 05:53:56;;;;;;;17.45;7.55;;;;;;;;;;5012442;28;20057;-66
2021/12/12 05:56:24;;;;;;;15.73;7.85;;;;;;;;;;5012506;28;20046;-67
2021/12/12 05:58:52;;;;;;;17.63;7.65;;;;;;;;;;5012684;28;20339;-66
2021/12/12 06:01:20;;;;;;;16.83;8.25;;;;;;;;;;5012503;28;20049;-67
2021/12/12 06:03:49;;;;;;;16.65;8.55;;;;;;;;;;5012526;28;20065;-67
2021/12/12 06:06:20;;;;;;;15.77;8.15;;;;;;;;;;5012893;28;20517;-67
2021/12/12 06:08:50;;;;;;;15.77;8.05;;;;;;;;;;5012280;28;20068;-66
2021/12/12 06:11:23;;;;;;;14.95;7.60;;;;;;;;;;5012385;28;20072;-66
2021/12/12 06:13:51;;;;;;;16.75;8.05;;;;;;;;;;5012351;28;20054;-66
2021/12/12 06:16:20;;;;;;;14.30;7.53;;;;;;;;;;5012340;28;20050;-65
2021/12/12 06:18:51;;;;;;;13.85;7.28;;;;;;;;;;5012176;28;20135;-65
2021/12/12 06:21:19;;;;;;;13.70;7.53;;;;;;;;;;5012276;28;20466;-64
2021/12/12 06:23:46;;;;;;;13.68;7.20;;;;;;;;;;5012240;28;20071;-66
2021/12/12 06:26:16;;;;;;;14.32;7.18;;;;;;;;;;5012662;28;20045;-66
2021/12/12 06:28:43;;;;;;;13.32;6.53;;;;;;;;;;5012045;28;20050;-67
2021/12/12 06:31:10;;;;;;;13.15;6.53;;;;;;;;;;5011851;28;20054;-67
2021/12/12 06:33:39;;;;;;;13.60;6.43;;;;;;;;;;5012131;28;20061;-67
2021/12/12 06:36:07;;;;;;;12.27;6.97;;;;;;;;;;5012109;28;20050;-67
2021/12/12 06:38:35;;;;;;;12.90;6.55;;;;;;;;;;5011766;28;20052;-67
2021/12/12 06:41:03;;;;;;;14.50;7.50;;;;;;;;;;5011904;28;20053;-67
2021/12/12 06:43:32;;;;;;;12.27;6.32;;;;;;;;;;5011709;28;20054;-67
2021/12/12 06:46:00;;;;;;;14.77;6.85;;;;;;;;;;5011893;28;20053;-68
2021/12/12 06:48:27;;;;;;;12.07;6.55;;;;;;;;;;5011906;28;20050;-68
2021/12/12 06:50:56;;;;;;;11.75;6.55;;;;;;;;;;5011987;28;20388;-68
2021/12/12 06:53:26;;;;;;;12.70;6.03;;;;;;;;;;5011802;28;20411;-68
2021/12/12 06:55:54;;;;;;;14.63;6.57;;;;;;;;;;5012202;28;20418;-68
2021/12/12 06:58:23;;;;;;;12.02;6.72;;;;;;;;;;5011758;28;20566;-68
2021/12/12 07:00:55;;;;;;;13.60;7.15;;;;;;;;;;5011792;28;20050;-68
2021/12/12 07:03:23;;;;;;;11.25;6.38;;;;;;;;;;5011736;28;20064;-68
2021/12/12 07:05:51;;;;;;;12.95;6.38;;;;;;;;;;5011757;28;20054;-68
2021/12/12 07:08:22;;;;;;;13.20;6.10;;;;;;;;;;5011654;28;20050;-68
2021/12/12 07:10:49;;;;;;;;;;;;;;;;;;5012117;28;20049;-68
2021/12/12 07:13:17;;;;;;;12.05;6.25;;;;;;;;;;5011608;28;20016;-68
2021/12/12 07:15:46;;;;;;;11.90;6.32;;;;;;;;;;5011565;28;20431;-68
2021/12/12 07:18:17;;;;;;;12.55;6.47;;;;;;;;;;5011417;28;20388;-68
2021/12/12 07:20:48;;;;;;;12.43;7.10;;;;;;;;;;5011699;28;20052;-69
2021/12/12 07:23:16;;;;;;;12.63;6.13;;;;;;;;;;5014916;28;20513;-66
2021/12/12 07:25:44;;;;;;;12.98;6.25;;;;;;;;;;5015063;28;20052;-66
2021/12/12 07:28:12;;;;;;;13.57;6.47;;;;;;;;;;5014750;28;20060;-68
2021/12/12 07:30:40;;;;;;;12.85;6.40;;;;;;;;;;5015182;28;20046;-66
2021/12/12 07:33:08;;;;;;;15.07;7.10;;;;;;;;;;5015132;28;20050;-67
2021/12/12 07:35:40;;;;;;;11.07;6.13;;;;;;;;;;5014850;28;20054;-67
2021/12/12 07:38:08;;;;;;;10.80;5.60;;;;;;;;;;5014663;28;20050;-67
2021/12/12 07:40:36;;;;;;;10.98;5.60;;;;;;;;;;5014817;28;20056;-67
2021/12/12 07:43:04;;;;;;;12.07;6.00;;;;;;;;;;5014946;28;20242;-67
2021/12/12 07:45:31;;;;;;;11.48;5.43;;;;;;;;;;5014927;28;20046;-67
2021/12/12 07:47:58;;;;;;;10.55;5.53;;;;;;;;;;5014555;28;20046;-67
2021/12/12 07:50:26;;;;;;;11.85;6.35;;;;;;;;;;5015291;28;20510;-66
2021/12/12 07:52:55;;;;;;;13.50;6.28;;;;;;;;;;5015126;28;20057;-67
2021/12/12 07:55:23;;;;;;;9.82;5.45;;;;;;;;;;5015327;28;20407;-68
2021/12/12 07:57:51;;;;;;;10.77;5.70;;;;;;;;;;5014408;28;20060;-67
2021/12/12 08:00:22;;;;;;;11.95;5.45;;;;;;;;;;5014346;28;20167;-68
2021/12/12 08:02:51;;;;;;;;;;;;;;;;;;5034357;23;20109;-78
2021/12/12 08:05:20;;;;;;;10.90;5.50;;;;;;;;;;5025848;28;19928;-80
2021/12/12 08:07:47;;;;;;;9.45;5.63;;;;;;;;;;5025689;28;20062;-79
2021/12/12 08:10:18;;;;;;;11.32;5.28;;;;;;;;;;5025885;28;20050;-78
2021/12/12 08:12:45;;;;;;;;;;;;;;;;;;5027711;28;20137;-78
2021/12/12 08:15:17;;;;;;;11.45;5.88;;;;;;;;;;5027214;28;20510;-77
2021/12/12 08:17:45;;;;;;;12.23;6.13;;;;;;;;;;5026961;28;20053;-77
2021/12/12 08:20:14;;;;;;;11.68;6.03;;;;;;;;;;5030231;28;20042;-78
2021/12/12 08:22:42;;;;;;;12.23;5.78;;;;;;;;;;5034694;28;20076;-77
2021/12/12 08:25:12;;;;;;;13.32;6.30;;;;;;;;;;5035963;28;20049;-77
2021/12/12 08:27:41;;;;;;;11.98;6.57;;;;;;;;;;5033553;28;20050;-77
2021/12/12 08:30:11;;;;;;;11.30;5.85;;;;;;;;;;5030493;28;20100;-78
2021/12/12 08:32:38;;;;;;;11.18;5.70;;;;;;;;;;5025144;28;20049;-77
2021/12/12 08:35:08;;;;;;;12.35;6.85;;;;;;;;;;5029249;28;20071;-77
2021/12/12 08:37:35;;;;;;;11.18;6.30;;;;;;;;;;5030433;28;20461;-79
2021/12/12 08:40:06;;;;;;;11.75;6.32;;;;;;;;;;5027458;28;20046;-79
2021/12/12 08:42:33;;;;;;;9.60;5.60;;;;;;;;;;5027956;28;20141;-79
2021/12/12 08:45:08;;;;;;;11.60;6.60;;;;;;;;;;5030513;28;20050;-78
2021/12/12 08:47:36;;;;;;;13.45;6.97;;;;;;;;;;5030615;28;20141;-79
2021/12/12 08:50:07;;;;;;;9.90;5.68;;;;;;;;;;5029947;28;20057;-78
2021/12/12 08:52:38;;;;;;;;;;;;;;;;;;5026624;28;20050;-79
2021/12/12 08:55:13;;;;;;;11.20;6.57;;;;;;;;;;5028994;28;19976;-79
2021/12/12 08:57:52;;;;;;;10.95;6.00;;;;;;;;;;5027580;28;20077;-79
2021/12/12 09:00:23;;;;;;;12.45;6.07;;;;;;;;;;5024389;28;20053;-79
2021/12/12 09:02:51;;;;;;;11.82;6.25;;;;;;;;;;5017873;28;20045;-78
2021/12/12 09:05:21;;;;;;;10.85;6.72;;;;;;;;;;5016843;28;20061;-78
2021/12/12 09:07:51;;;;;;;13.70;6.05;;;;;;;;;;5016183;28;20056;-79
2021/12/12 09:10:22;;;;;;;12.27;6.60;;;;;;;;;;5016543;28;20467;-79
2021/12/12 09:12:51;;;;;;;;;;;;;;;;;;5016592;28;20366;-79
2021/12/12 09:15:24;;;;;;;12.95;6.25;;;;;;;;;;5015336;28;19925;-79
2021/12/12 09:17:56;;;;;;;12.93;6.65;;;;;;;;;;5016462;28;20053;-78
2021/12/12 09:20:33;;;;;;;13.10;6.50;;;;;;;;;;5017986;28;20521;-79
2021/12/12 09:23:06;;;;;;;12.20;5.90;;;;;;;;;;5018503;28;20560;-78
2021/12/12 09:25:42;;;;;;;10.63;6.32;;;;;;;;;;5019007;28;20108;-80
2021/12/12 09:28:17;;;;;;;12.15;6.40;;;;;;;;;;5022076;28;20114;-79
2021/12/12 09:30:45;;;;;;;10.98;5.72;;;;;;;;;;5017510;28;20413;-81
2021/12/12 09:33:19;;;;;;;14.57;6.20;;;;;;;;;;5018492;28;20050;-81
2021/12/12 09:35:51;;;;;;;11.18;5.40;;;;;;;;;;5018083;28;20057;-81
2021/12/12 09:38:25;;;;;;;10.23;5.72;;;;;;;;;;5018361;28;20056;-80
2021/12/12 09:41:23;;;;;;;11.98;6.03;;;;;;;;;;5035097;28;20046;-80
2021/12/12 09:44:20;;;;;;;12.13;6.07;;;;;;;;;;5026432;28;20100;-83
2021/12/12 09:47:25;;;;;;;10.23;5.40;;;;;;;;;;5020943;28;20107;-83
2021/12/12 09:53:12;;;;;;;12.07;6.30;;;;;;;;;;5020186;28;20310;-81
2021/12/12 09:55:48;;;;;;;11.57;5.68;;;;;;;;;;4992041;28;20053;-82
2021/12/12 09:58:33;;;;;;;13.15;6.45;;;;;;;;;;5025200;28;20049;-86
2021/12/12 10:01:05;;;;;;;13.40;6.70;;;;;;;;;;5025526;28;20049;-84
2021/12/12 10:03:55;;;;;;;11.63;5.95;;;;;;;;;;5020718;28;20045;-81
2021/12/12 10:06:35;;;;;;;13.23;6.17;;;;;;;;;;5017421;28;20046;-81
2021/12/12 10:09:07;;;;;;;12.07;6.60;;;;;;;;;;5021710;28;20129;-80
2021/12/12 10:11:39;;;;;;;12.88;7.18;;;;;;;;;;5022955;28;20069;-81
2021/12/12 10:14:13;;;;;;;12.63;6.20;;;;;;;;;;5017989;28;20042;-80
2021/12/12 10:16:50;;;;;;;12.05;6.57;;;;;;;;;;5022975;28;20042;-80
2021/12/12 10:19:29;;;;;;;14.57;6.72;;;;;;;;;;5020579;28;20050;-82
2021/12/12 10:22:06;;;;;;;12.05;6.07;;;;;;;;;;5019620;28;20084;-82
2021/12/12 10:24:36;;;;;;;12.70;7.10;;;;;;;;;;5020081;28;20104;-83
2021/12/12 10:27:09;;;;;;;13.35;6.93;;;;;;;;;;5022034;28;20082;-81
2021/12/12 10:29:43;;;;;;;14.73;7.43;;;;;;;;;;5016319;28;20050;-82
2021/12/12 10:32:18;;;;;;;14.98;7.43;;;;;;;;;;5017751;28;20073;-81
2021/12/12 10:34:51;;;;;;;14.05;7.45;;;;;;;;;;5017392;28;20072;-81
2021/12/12 10:37:24;;;;;;;22.83;11.43;;;;;;;;;;5017627;28;20042;-81
2021/12/12 10:39:55;;;;;;;16.40;7.47;;;;;;;;;;5017756;28;20049;-81
2021/12/12 10:42:28;;;;;;;14.95;7.30;;;;;;;;;;5016195;28;20108;-82
2021/12/12 10:44:59;;;;;;;14.82;8.30;;;;;;;;;;5020258;28;20077;-81
2021/12/12 10:47:34;;;;;;;18.27;8.77;;;;;;;;;;5018382;28;20077;-81
2021/12/12 10:50:10;;;;;;;16.27;8.07;;;;;;;;;;5018257;28;20046;-81
2021/12/12 10:52:43;;;;;;;19.13;8.50;;;;;;;;;;5017259;28;20046;-81
2021/12/12 10:55:17;;;;;;;15.63;8.23;;;;;;;;;;5021262;28;20049;-83
2021/12/12 10:57:52;;;;;;;18.65;8.82;;;;;;;;;;5026880;28;20049;-81
2021/12/12 11:00:23;;;;;;;15.52;8.45;;;;;;;;;;5025827;28;20057;-81
2021/12/12 11:02:53;;;;;;;;;;;;;;;;;;5023146;28;20042;-82
2021/12/12 11:05:28;;;;;;;14.80;7.22;;;;;;;;;;5023660;28;19948;-81
2021/12/12 11:08:05;;;;;;;16.15;7.47;;;;;;;;;;5022654;28;20524;-83
2021/12/12 11:10:36;;;;;;;13.55;8.05;;;;;;;;;;5025190;28;20049;-82
2021/12/12 11:13:09;;;;;;;15.32;7.88;;;;;;;;;;5024747;28;20116;-82
2021/12/12 11:15:39;;;;;;;14.68;7.00;;;;;;;;;;5027104;28;20053;-81
2021/12/12 11:18:23;;;;;;;13.30;7.07;;;;;;;;;;5027319;28;20042;-80
2021/12/12 11:20:55;;;;;;;14.02;6.20;;;;;;;;;;5023231;28;20080;-82
2021/12/12 11:23:32;;;;;;;15.25;7.32;;;;;;;;;;5021362;28;20411;-81
2021/12/12 11:26:02;;;;;;;12.48;6.75;;;;;;;;;;5021999;28;20072;-82
2021/12/12 11:28:36;;;;;;;13.23;6.93;;;;;;;;;;5023787;28;20050;-82
2021/12/12 11:31:09;;;;;;;12.55;6.70;;;;;;;;;;5022604;28;20077;-82
2021/12/12 11:33:39;;;;;;;12.10;6.15;;;;;;;;;;5022003;28;20046;-81
2021/12/12 11:36:12;;;;;;;10.43;5.53;;;;;;;;;;5021590;28;20050;-80
2021/12/12 11:38:45;;;;;;;12.30;6.55;;;;;;;;;;5026910;28;20042;-81
2021/12/12 11:41:17;;;;;;;11.90;6.25;;;;;;;;;;5026651;28;20052;-83
2021/12/12 11:43:53;;;;;;;11.32;5.93;;;;;;;;;;5028321;28;20053;-80
2021/12/12 11:46:25;;;;;;;11.20;6.25;;;;;;;;;;5027471;28;20054;-81
2021/12/12 11:48:57;;;;;;;11.63;5.63;;;;;;;;;;5025134;28;20049;-82
2021/12/12 11:51:33;;;;;;;10.48;5.47;;;;;;;;;;5024564;28;20045;-81
2021/12/12 11:54:07;;;;;;;11.93;5.72;;;;;;;;;;5022372;28;20054;-81
2021/12/12 11:56:45;;;;;;;10.30;5.55;;;;;;;;;;5020827;28;20045;-81
2021/12/12 11:59:17;;;;;;;10.93;5.72;;;;;;;;;;5020138;28;20049;-81
2021/12/12 12:02:00;;;;;;;8.88;4.88;;;;;;;;;;5020538;28;20057;-80
2021/12/12 12:04:55;;;;;;;9.32;4.82;;;;;;;;;;5022800;28;20053;-81
2021/12/12 12:07:41;;;;;;;7.93;4.53;;;;;;;;;;5022464;28;20049;-81
2021/12/12 12:10:12;;;;;;;13.38;6.15;;;;;;;;;;5023273;28;20046;-81
2021/12/12 12:12:58;;;;;;;11.88;5.50;;;;;;;;;;5024906;28;20053;-82
2021/12/12 12:15:37;;;;;;;9.48;4.80;;;;;;;;;;5037779;28;20100;-79
2021/12/12 12:18:14;;;;;;;9.55;4.85;;;;;;;;;;5036378;28;20046;-82
2021/12/12 12:20:45;;;;;;;10.00;4.80;;;;;;;;;;5029209;28;20045;-81
2021/12/12 12:23:42;;;;;;;10.35;5.28;;;;;;;;;;5025224;28;20049;-81
2021/12/12 12:29:03;;;;;;;8.88;3.90;;;;;;;;;;5024871;28;20068;-82
2021/12/12 12:32:06;;;;;;;8.45;4.30;;;;;;;;;;5025166;28;20053;-81
2021/12/12 12:35:56;;;;;;;7.35;4.07;;;;;;;;;;5025321;28;20050;-81
2021/12/12 12:39:11;;;;;;;7.95;3.90;;;;;;;;;;5035674;28;20105;-82
2021/12/12 12:42:42;;;;;;;6.78;4.03;;;;;;;;;;4995023;28;20034;-81
2021/12/12 12:45:51;;;;;;;7.38;3.75;;;;;;;;;;5023734;28;20057;-81
2021/12/12 12:48:55;;;;;;;7.38;3.92;;;;;;;;;;5031013;28;20045;-80
2021/12/12 12:51:41;;;;;;;6.68;3.22;;;;;;;;;;5030618;28;20041;-81
2021/12/12 12:54:29;;;;;;;7.68;3.85;;;;;;;;;;5030798;28;20065;-80
2021/12/12 12:57:06;;;;;;;7.95;3.50;;;;;;;;;;5028409;28;20096;-81
2021/12/12 13:00:14;;;;;;;7.43;3.40;;;;;;;;;;5027716;28;20120;-80
2021/12/12 13:03:16;;;;;;;6.93;4.28;;;;;;;;;;5028395;28;20053;-80
2021/12/12 13:06:29;;;;;;;9.02;4.25;;;;;;;;;;5026364;28;20050;-80
2021/12/12 13:09:12;;;;;;;8.15;3.88;;;;;;;;;;5031716;28;20084;-83
2021/12/12 13:11:55;;;;;;;8.60;3.95;;;;;;;;;;5041357;28;20040;-79
2021/12/12 13:14:41;;;;;;;7.55;3.65;;;;;;;;;;5041922;28;20047;-79
2021/12/12 13:17:15;;;;;;;8.30;3.92;;;;;;;;;;5041747;28;20046;-80
2021/12/12 13:19:54;;;;;;;7.10;3.42;;;;;;;;;;5040329;28;20072;-79
2021/12/12 13:22:27;;;;;;;7.40;3.13;;;;;;;;;;5040506;28;20041;-80
2021/12/12 13:25:04;;;;;;;9.32;4.07;;;;;;;;;;5036190;28;20048;-80
2021/12/12 13:28:03;;;;;;;7.18;3.42;;;;;;;;;;5033749;28;20459;-80
2021/12/12 13:30:42;;;;;;;6.97;3.78;;;;;;;;;;5024335;28;20362;-79
2021/12/12 13:33:19;;;;;;;8.02;3.92;;;;;;;;;;5031792;28;20057;-80
2021/12/12 13:36:02;;;;;;;5.47;3.22;;;;;;;;;;5035461;28;20042;-79
2021/12/12 13:38:42;;;;;;;7.13;4.13;;;;;;;;;;5024082;28;20046;-80
2021/12/12 13:41:16;;;;;;;7.57;3.80;;;;;;;;;;5022242;28;20041;-81
2021/12/12 13:43:52;;;;;;;6.28;3.42;;;;;;;;;;5020854;28;20047;-79
2021/12/12 13:46:25;;;;;;;6.43;3.70;;;;;;;;;;5022910;28;20171;-81
2021/12/12 13:48:59;;;;;;;7.50;3.90;;;;;;;;;;5023470;28;20065;-81
2021/12/12 13:51:44;;;;;;;6.03;3.38;;;;;;;;;;5022187;28;20129;-82
2021/12/12 13:54:26;;;;;;;7.50;3.03;;;;;;;;;;5020568;28;20041;-81
2021/12/12 13:57:15;;;;;;;6.95;3.00;;;;;;;;;;5022288;28;20049;-81
2021/12/12 14:00:08;;;;;;;6.93;3.40;;;;;;;;;;5024011;28;20389;-80
2021/12/12 14:02:37;;;;;;;5.03;2.78;;;;;;;;;;5023569;28;20065;-79
2021/12/12 14:05:13;;;;;;;5.85;3.38;;;;;;;;;;5022866;28;20108;-82
2021/12/12 14:07:42;;;;;;;7.35;3.17;;;;;;;;;;5020977;28;20053;-80
2021/12/12 14:10:15;;;;;;;9.20;4.40;;;;;;;;;;5022690;28;20141;-80
2021/12/12 14:12:46;;;;;;;7.47;3.70;;;;;;;;;;5023481;28;20053;-80
2021/12/12 14:15:20;;;;;;;6.25;3.33;;;;;;;;;;5021357;28;20470;-81
2021/12/12 14:17:50;;;;;;;5.47;2.70;;;;;;;;;;5020505;28;20050;-79
2021/12/12 14:20:22;;;;;;;5.17;2.63;;;;;;;;;;5020113;28;20041;-81
2021/12/12 14:22:50;;;;;;;6.20;3.28;;;;;;;;;;5020354;28;20049;-82
2021/12/12 14:25:18;;;;;;;6.30;3.30;;;;;;;;;;5020088;28;20479;-81
2021/12/12 14:27:48;;;;;;;5.93;3.08;;;;;;;;;;5019603;28;20061;-80
2021/12/12 14:30:18;;;;;;;7.47;3.30;;;;;;;;;;5021097;28;20050;-80
2021/12/12 14:32:51;;;;;;;6.22;3.45;;;;;;;;;;5024456;28;20046;-80
2021/12/12 14:35:24;;;;;;;6.65;3.10;;;;;;;;;;5024382;28;20068;-80
2021/12/12 14:37:53;;;;;;;6.00;3.10;;;;;;;;;;5024010;28;20049;-80
2021/12/12 14:40:24;;;;;;;6.78;3.25;;;;;;;;;;5024323;28;20524;-81
2021/12/12 14:42:54;;;;;;;6.05;3.45;;;;;;;;;;5024222;28;20080;-81
2021/12/12 14:45:29;;;;;;;5.43;3.13;;;;;;;;;;5025352;28;20059;-82
2021/12/12 14:48:02;;;;;;;4.70;2.97;;;;;;;;;;5024784;28;20053;-81
2021/12/12 14:50:34;;;;;;;5.15;2.78;;;;;;;;;;5025421;28;20058;-80
2021/12/12 14:53:05;;;;;;;5.82;3.10;;;;;;;;;;5030488;28;20463;-82
2021/12/12 14:55:36;;;;;;;5.63;2.63;;;;;;;;;;5033458;28;20053;-84
2021/12/12 14:58:08;;;;;;;5.35;2.88;;;;;;;;;;5032834;28;20038;-81
2021/12/12 15:00:42;;;;;;;7.05;3.47;;;;;;;;;;5026490;28;20525;-80
2021/12/12 15:03:14;;;;;;;7.47;3.95;;;;;;;;;;5024316;28;20038;-81
2021/12/12 15:05:46;;;;;;;5.32;3.10;;;;;;;;;;5026497;28;20042;-80
2021/12/12 15:08:18;;;;;;;5.35;2.90;;;;;;;;;;5030715;28;20099;-80
2021/12/12 15:10:50;;;;;;;5.45;3.28;;;;;;;;;;5030837;28;20046;-81
2021/12/12 15:13:20;;;;;;;6.70;3.15;;;;;;;;;;5030905;28;20057;-81
2021/12/12 15:15:54;;;;;;;6.20;3.35;;;;;;;;;;5025245;28;20096;-81
2021/12/12 15:18:28;;;;;;;9.70;5.03;;;;;;;;;;5025261;28;20050;-79
2021/12/12 15:20:59;;;;;;;10.40;6.20;;;;;;;;;;5024035;28;20069;-80
2021/12/12 15:23:29;;;;;;;7.25;4.45;;;;;;;;;;5023129;28;20046;-79
2021/12/12 15:26:00;;;;;;;9.27;4.18;;;;;;;;;;5022849;28;20049;-80
2021/12/12 15:28:32;;;;;;;7.82;3.70;;;;;;;;;;5022492;28;20057;-80
2021/12/12 15:31:03;;;;;;;8.32;4.55;;;;;;;;;;5023842;28;20038;-81
2021/12/12 15:33:32;;;;;;;7.47;3.83;;;;;;;;;;5024427;28;20045;-81